createdAt,value
2023-03-05T00:02:30.271Z,52.88
2023-03-05T00:05:00.680Z,52.82
2023-03-05T00:07:31.201Z,52.77
2023-03-05T00:10:04.113Z,53.13
2023-03-05T00:12:34.589Z,53.21
2023-03-05T00:15:05.727Z,52.85
2023-03-05T00:17:36.371Z,52.80
2023-03-05T00:20:08.812Z,53.08
2023-03-05T00:22:38.034Z,53.19
2023-03-05T00:25:10.576Z,53.48
2023-03-05T00:27:41.033Z,53.47
2023-03-05T00:30:14.429Z,53.43
2023-03-05T00:32:44.857Z,53.43
2023-03-05T00:35:15.671Z,53.48
2023-03-05T00:37:46.125Z,53.37
2023-03-05T00:40:17.066Z,53.38
2023-03-05T00:42:47.649Z,53.20
2023-03-05T00:45:18.300Z,53.13
2023-03-05T00:47:48.772Z,53.06
2023-03-05T00:50:19.146Z,53.20
2023-03-05T00:52:49.593Z,52.59
2023-03-05T00:55:20.338Z,52.21
2023-03-05T00:57:50.843Z,52.29
2023-03-05T01:00:22.631Z,52.38
2023-03-05T01:02:53.121Z,52.71
2023-03-05T01:05:23.679Z,52.72
2023-03-05T01:07:56.147Z,52.45
2023-03-05T01:10:27.732Z,52.42
2023-03-05T01:12:58.362Z,52.59
2023-03-05T01:15:29.073Z,52.53
2023-03-05T01:17:59.546Z,52.47
2023-03-05T01:20:30.661Z,52.73
2023-03-05T01:23:01.932Z,52.94
2023-03-05T01:25:32.925Z,52.96
2023-03-05T01:28:03.579Z,53.26
2023-03-05T01:30:34.495Z,53.71
2023-03-05T01:33:05.371Z,53.79
2023-03-05T01:35:35.895Z,53.87
2023-03-05T01:38:07.004Z,54.11
2023-03-05T01:40:37.442Z,54.41
2023-03-05T01:43:24.314Z,54.23
2023-03-05T01:46:29.779Z,54.46
2023-03-05T01:49:15.539Z,54.50
2023-03-05T01:51:54.011Z,54.62
2023-03-05T01:54:29.233Z,54.96
2023-03-05T01:57:03.270Z,54.87
2023-03-05T01:59:34.176Z,54.89
2023-03-05T02:02:06.062Z,54.99
2023-03-05T02:04:42.088Z,55.14
2023-03-05T02:07:13.711Z,55.43
2023-03-05T02:09:44.703Z,55.79
2023-03-05T02:12:16.348Z,56.20
2023-03-05T02:14:49.985Z,56.47
2023-03-05T02:17:20.585Z,57.01
2023-03-05T02:19:55.700Z,57.33
2023-03-05T02:22:26.784Z,57.65
2023-03-05T02:24:57.299Z,57.93
2023-03-05T02:27:35.635Z,58.22
2023-03-05T02:30:07.644Z,58.47
2023-03-05T02:32:38.225Z,58.61
2023-03-05T02:35:10.703Z,58.83
2023-03-05T02:37:41.507Z,59.04
2023-03-05T02:40:14.844Z,58.90
2023-03-05T02:42:46.784Z,58.88
2023-03-05T02:45:18.625Z,59.05
2023-03-05T02:47:49.164Z,58.95
2023-03-05T02:50:20.025Z,58.94
2023-03-05T02:52:50.641Z,58.75
2023-03-05T02:55:22.080Z,58.55
2023-03-05T02:57:52.568Z,58.45
2023-03-05T03:00:24.355Z,58.39
2023-03-05T03:02:55.114Z,58.32
2023-03-05T03:05:26.001Z,58.02
2023-03-05T03:07:56.424Z,57.67
2023-03-05T03:10:26.998Z,57.51
2023-03-05T03:12:57.656Z,57.67
2023-03-05T03:15:28.383Z,58.05
2023-03-05T03:17:58.824Z,57.97
2023-03-05T03:20:29.267Z,57.95
2023-03-05T03:22:59.872Z,58.09
2023-03-05T03:25:31.140Z,58.17
2023-03-05T03:28:01.614Z,58.28
2023-03-05T03:30:32.458Z,58.62
2023-03-05T03:33:03.422Z,58.40
2023-03-05T03:35:33.862Z,58.49
2023-03-05T03:38:04.334Z,58.38
2023-03-05T03:40:35.958Z,58.27
2023-03-05T03:43:06.407Z,58.32
2023-03-05T03:45:36.876Z,58.32
2023-03-05T03:48:07.618Z,58.41
2023-03-05T03:50:41.065Z,58.46
2023-03-05T03:53:14.228Z,58.53
2023-03-05T03:55:46.519Z,58.58
2023-03-05T03:58:17.004Z,58.70
2023-03-05T04:00:47.478Z,58.75
2023-03-05T04:03:17.895Z,58.84
2023-03-05T04:05:48.425Z,58.81
2023-03-05T04:08:18.857Z,58.57
2023-03-05T04:10:49.387Z,58.76
2023-03-05T04:13:19.887Z,58.73
2023-03-05T04:15:50.510Z,58.88
2023-03-05T04:18:21.077Z,58.86
2023-03-05T04:20:51.560Z,59.04
2023-03-05T04:23:21.987Z,59.11
2023-03-05T04:25:52.547Z,59.19
2023-03-05T04:28:23.024Z,59.34
2023-03-05T04:30:53.948Z,59.57
2023-03-05T04:33:24.428Z,59.82
2023-03-05T04:35:55.290Z,59.89
2023-03-05T04:38:25.762Z,59.99
2023-03-05T04:40:56.177Z,59.90
2023-03-05T04:43:26.748Z,60.11
2023-03-05T04:45:57.550Z,60.19
2023-03-05T04:48:28.072Z,60.09
2023-03-05T04:50:58.935Z,60.13
2023-03-05T04:53:29.372Z,60.56
2023-03-05T04:56:01.606Z,60.38
2023-03-05T04:58:32.390Z,60.71
2023-03-05T05:01:05.509Z,60.55
2023-03-05T05:03:36.410Z,60.84
2023-03-05T05:06:07.636Z,60.96
2023-03-05T05:08:38.308Z,60.97
2023-03-05T05:11:14.001Z,61.26
2023-03-05T05:13:44.577Z,61.25
2023-03-05T05:16:15.668Z,61.56
2023-03-05T05:18:46.349Z,61.36
2023-03-05T05:21:18.597Z,61.58
2023-03-05T05:23:49.113Z,61.44
2023-03-05T05:26:19.662Z,61.58
2023-03-05T05:28:50.553Z,61.69
2023-03-05T05:31:21.064Z,61.62
2023-03-05T05:33:51.654Z,61.79
2023-03-05T05:36:22.852Z,61.88
2023-03-05T05:38:53.306Z,62.02
2023-03-05T05:41:23.772Z,62.13
2023-03-05T05:43:54.277Z,62.23
2023-03-05T05:46:25.840Z,62.30
2023-03-05T05:48:56.405Z,62.57
2023-03-05T05:51:27.135Z,62.67
2023-03-05T05:53:57.626Z,62.66
2023-03-05T05:56:28.050Z,63.03
2023-03-05T05:58:58.501Z,63.02
2023-03-05T06:01:31.939Z,63.20
2023-03-05T06:04:02.845Z,63.36
2023-03-05T06:06:35.100Z,63.74
2023-03-05T06:09:06.524Z,64.00
2023-03-05T06:11:38.116Z,64.51
2023-03-05T06:14:09.069Z,65.21
2023-03-05T06:16:39.921Z,65.37
2023-03-05T06:19:12.508Z,65.84
2023-03-05T06:21:43.110Z,65.96
2023-03-05T06:24:14.075Z,66.28
2023-03-05T06:26:46.738Z,66.52
2023-03-05T06:29:17.355Z,66.60
2023-03-05T06:31:47.822Z,66.81
2023-03-05T06:34:18.289Z,66.89
2023-03-05T06:36:48.771Z,67.01
2023-03-05T06:39:19.252Z,67.11
2023-03-05T06:41:53.185Z,67.15
2023-03-05T06:44:23.617Z,67.16
2023-03-05T06:51:13.875Z,67.43
2023-03-05T06:58:03.642Z,67.74
2023-03-05T07:00:34.065Z,68.11
2023-03-05T07:03:05.126Z,67.93
2023-03-05T07:05:39.015Z,67.85
2023-03-05T07:08:09.665Z,67.82
2023-03-05T07:10:42.825Z,67.78
2023-03-05T07:13:13.871Z,67.72
2023-03-05T07:15:44.422Z,67.51
2023-03-05T07:18:14.944Z,67.35
2023-03-05T07:20:45.410Z,67.24
2023-03-05T07:23:15.931Z,67.08
2023-03-05T07:25:46.402Z,66.82
2023-03-05T07:28:16.909Z,66.73
2023-03-05T07:30:55.631Z,66.40
2023-03-05T07:33:24.993Z,65.97
2023-03-05T07:35:56.091Z,65.59
2023-03-05T07:38:26.663Z,65.31
2023-03-05T07:40:57.193Z,64.94
2023-03-05T07:43:27.620Z,64.54
2023-03-05T07:45:58.152Z,64.29
2023-03-05T07:48:28.713Z,63.95
2023-03-05T07:51:04.933Z,63.80
2023-03-05T07:53:35.672Z,63.52
2023-03-05T07:56:07.213Z,63.38
2023-03-05T07:58:37.938Z,63.31
2023-03-05T08:01:14.932Z,62.74
2023-03-05T08:03:46.075Z,62.68
2023-03-05T08:06:17.135Z,62.82
2023-03-05T08:08:47.558Z,62.32
2023-03-05T08:11:18.491Z,62.00
2023-03-05T08:13:49.341Z,62.07
2023-03-05T08:16:21.935Z,61.31
2023-03-05T08:18:55.118Z,61.23
2023-03-05T08:21:29.493Z,60.57
2023-03-05T08:24:00.872Z,59.86
2023-03-05T08:26:33.149Z,60.22
2023-03-05T08:29:03.632Z,60.47
2023-03-05T08:31:35.005Z,60.99
2023-03-05T08:34:06.074Z,61.14
2023-03-05T08:36:36.555Z,61.18
2023-03-05T08:39:08.670Z,62.09
2023-03-05T08:41:39.170Z,62.06
2023-03-05T08:44:09.709Z,62.05
2023-03-05T08:46:41.712Z,62.01
2023-03-05T08:49:12.504Z,61.71
2023-03-05T08:51:42.953Z,61.66
2023-03-05T08:54:13.371Z,61.87
2023-03-05T08:56:43.787Z,61.95
2023-03-05T08:59:14.588Z,62.01
2023-03-05T09:01:45.062Z,62.12
2023-03-05T09:04:15.899Z,61.89
2023-03-05T09:06:46.432Z,61.77
2023-03-05T09:10:11.529Z,61.98
2023-03-05T09:12:42.322Z,62.03
2023-03-05T09:15:13.845Z,61.77
2023-03-05T09:17:44.297Z,61.61
2023-03-05T09:20:16.450Z,61.57
2023-03-05T09:22:46.896Z,62.31
2023-03-05T09:25:17.463Z,62.92
2023-03-05T09:27:47.976Z,63.29
2023-03-05T09:30:19.589Z,63.39
2023-03-05T09:32:51.140Z,63.34
2023-03-05T09:35:21.904Z,63.32
2023-03-05T09:37:52.715Z,63.44
2023-03-05T09:40:26.600Z,63.38
2023-03-05T09:43:10.245Z,63.41
2023-03-05T09:45:45.804Z,63.28
2023-03-05T09:48:21.591Z,62.79
2023-03-05T09:51:00.305Z,62.77
2023-03-05T09:53:40.011Z,62.78
2023-03-05T09:56:16.700Z,62.73
2023-03-05T09:58:55.999Z,62.12
2023-03-05T10:01:32.094Z,61.70
2023-03-05T10:04:07.183Z,61.77
2023-03-05T10:06:42.564Z,61.75
2023-03-05T10:09:23.471Z,61.55
2023-03-05T10:11:58.264Z,61.05
2023-03-05T10:14:31.773Z,61.09
2023-03-05T10:17:40.844Z,60.83
2023-03-05T10:20:28.326Z,60.18
2023-03-05T10:23:34.644Z,60.38
2023-03-05T10:26:21.499Z,60.22
2023-03-05T10:29:03.692Z,60.25
2023-03-05T10:31:47.382Z,59.12
2023-03-05T10:34:52.081Z,58.48
2023-03-05T10:37:58.142Z,58.11
2023-03-05T10:40:36.184Z,58.07
2023-03-05T10:43:15.303Z,57.84
2023-03-05T10:45:48.704Z,57.06
2023-03-05T10:48:29.709Z,56.82
2023-03-05T10:51:05.427Z,56.45
2023-03-05T10:53:40.759Z,57.02
2023-03-05T10:56:14.018Z,57.41
2023-03-05T10:58:44.506Z,57.64
2023-03-05T11:01:24.762Z,58.16
2023-03-05T11:03:58.930Z,58.50
2023-03-05T11:10:42.345Z,59.11
2023-03-05T11:13:28.399Z,59.38
2023-03-05T11:20:36.258Z,59.74
2023-03-05T11:23:14.520Z,59.80
2023-03-05T11:26:01.035Z,59.91
2023-03-05T11:28:34.548Z,60.20
2023-03-05T11:31:09.462Z,61.27
2023-03-05T11:33:40.511Z,60.80
2023-03-05T11:36:26.191Z,60.77
2023-03-05T11:38:59.821Z,60.65
2023-03-05T11:41:35.561Z,60.49
2023-03-05T11:44:13.484Z,60.25
2023-03-05T11:46:47.983Z,60.35
2023-03-05T11:49:22.901Z,60.16
2023-03-05T11:52:01.660Z,60.13
2023-03-05T11:54:34.738Z,59.81
2023-03-05T11:57:08.327Z,59.72
2023-03-05T11:59:40.786Z,59.50
2023-03-05T12:02:19.444Z,59.74
2023-03-05T12:04:51.798Z,59.80
2023-03-05T12:07:28.581Z,59.59
2023-03-05T12:09:58.960Z,59.57
2023-03-05T12:12:42.190Z,60.00
2023-03-05T12:15:30.436Z,61.66
2023-03-05T12:18:12.001Z,62.92
2023-03-05T12:20:49.702Z,63.51
2023-03-05T12:23:22.482Z,63.97
2023-03-05T12:25:54.421Z,64.05
2023-03-05T12:28:54.535Z,64.43
2023-03-05T12:31:39.448Z,64.26
2023-03-05T12:34:48.297Z,64.24
2023-03-05T12:37:57.375Z,64.08
2023-03-05T12:40:29.533Z,63.90
2023-03-05T12:43:02.123Z,63.54
2023-03-05T12:45:40.768Z,63.27
2023-03-05T12:48:26.958Z,63.30
2023-03-05T12:51:01.726Z,64.19
2023-03-05T12:53:32.201Z,64.54
2023-03-05T12:56:13.983Z,64.77
2023-03-05T12:58:48.179Z,65.14
2023-03-05T13:01:33.083Z,65.10
2023-03-05T13:04:10.863Z,65.24
2023-03-05T13:06:41.999Z,64.85
2023-03-05T13:09:19.704Z,64.91
2023-03-05T13:11:52.830Z,65.42
2023-03-05T13:14:32.865Z,66.00
2023-03-05T13:17:04.873Z,66.27
2023-03-05T13:19:36.166Z,66.34
2023-03-05T13:22:13.039Z,66.44
2023-03-05T13:24:43.471Z,66.64
2023-03-05T13:27:25.972Z,66.81
2023-03-05T13:29:56.383Z,66.89
2023-03-05T13:32:31.112Z,67.08
2023-03-05T13:35:02.772Z,66.90
2023-03-05T13:37:36.701Z,66.76
2023-03-05T13:40:20.271Z,66.46
2023-03-05T13:42:51.142Z,66.16
2023-03-05T13:45:28.253Z,66.08
2023-03-05T13:48:01.367Z,65.94
2023-03-05T13:50:33.607Z,66.28
2023-03-05T13:53:19.481Z,66.58
2023-03-05T13:55:51.054Z,66.27
2023-03-05T13:58:53.386Z,65.87
2023-03-05T14:01:33.045Z,66.11
2023-03-05T14:04:08.623Z,66.10
2023-03-05T14:06:47.505Z,66.10
2023-03-05T14:09:23.482Z,65.98
2023-03-05T14:12:00.782Z,65.97
2023-03-05T14:14:35.312Z,66.03
2023-03-05T14:17:44.409Z,66.18
2023-03-05T14:20:34.504Z,66.06
2023-03-05T14:23:34.144Z,65.77
2023-03-05T14:26:24.232Z,65.71
2023-03-05T14:28:56.902Z,65.38
2023-03-05T14:31:29.329Z,65.10
2023-03-05T14:34:03.074Z,64.54
2023-03-05T14:36:34.867Z,64.46
2023-03-05T14:39:05.783Z,64.41
2023-03-05T14:41:40.049Z,64.42
2023-03-05T14:44:16.048Z,64.19
2023-03-05T14:46:49.782Z,64.44
2023-03-05T14:49:20.242Z,64.46
2023-03-05T14:51:50.717Z,64.04
2023-03-05T14:54:25.021Z,63.87
2023-03-05T14:56:55.898Z,63.60
2023-03-05T14:59:26.713Z,63.72
2023-03-05T15:01:57.660Z,63.28
2023-03-05T15:04:28.202Z,63.04
2023-03-05T15:06:58.617Z,62.97
2023-03-05T15:09:29.729Z,63.04
2023-03-05T15:16:19.065Z,62.76
2023-03-05T15:18:50.462Z,63.05
2023-03-05T15:21:20.919Z,63.20
2023-03-05T15:23:51.388Z,63.32
2023-03-05T15:26:22.034Z,63.58
2023-03-05T15:28:52.498Z,63.94
2023-03-05T15:31:23.098Z,64.15
2023-03-05T15:33:53.739Z,64.29
2023-03-05T15:36:24.210Z,64.46
2023-03-05T15:38:54.757Z,64.59
2023-03-05T15:41:25.236Z,64.60
2023-03-05T15:43:55.662Z,64.81
2023-03-05T15:46:26.278Z,65.00
2023-03-05T15:48:56.878Z,65.04
2023-03-05T15:51:27.505Z,65.21
2023-03-05T15:53:58.032Z,65.26
2023-03-05T15:56:28.550Z,65.34
2023-03-05T15:58:59.023Z,65.43
2023-03-05T16:01:29.681Z,65.52
2023-03-05T16:04:00.177Z,65.59
2023-03-05T16:06:31.381Z,65.91
2023-03-05T16:09:04.922Z,65.91
2023-03-05T16:11:37.360Z,66.07
2023-03-05T16:14:08.382Z,66.05
2023-03-05T16:16:39.546Z,66.21
2023-03-05T16:19:13.622Z,66.17
2023-03-05T16:21:44.410Z,66.24
2023-03-05T16:24:15.253Z,66.36
2023-03-05T16:26:45.877Z,66.47
2023-03-05T16:29:16.436Z,66.42
2023-03-05T16:31:47.754Z,66.62
2023-03-05T16:34:18.870Z,66.76
2023-03-05T16:36:52.932Z,66.90
2023-03-05T16:39:24.171Z,66.93
2023-03-05T16:41:54.825Z,67.09
2023-03-05T16:44:25.535Z,67.05
2023-03-05T16:46:56.569Z,67.34
2023-03-05T16:49:27.287Z,67.28
2023-03-05T16:51:59.430Z,67.22
2023-03-05T16:54:32.056Z,67.25
2023-03-05T16:57:02.863Z,67.26
2023-03-05T16:59:33.424Z,67.14
2023-03-05T17:02:04.120Z,67.32
2023-03-05T17:04:34.872Z,67.23
2023-03-05T17:07:05.558Z,67.60
2023-03-05T17:09:36.763Z,67.88
2023-03-05T17:12:07.861Z,68.01
2023-03-05T17:14:38.345Z,68.12
2023-03-05T17:17:08.800Z,68.06
2023-03-05T17:19:39.609Z,68.04
2023-03-05T17:22:12.926Z,67.95
2023-03-05T17:24:43.825Z,68.08
2023-03-05T17:27:14.332Z,67.94
2023-03-05T17:29:45.866Z,67.94
2023-03-05T17:32:16.400Z,68.19
2023-03-05T17:35:38.277Z,68.06
2023-03-05T17:38:11.021Z,68.08
2023-03-05T17:40:41.469Z,67.93
2023-03-05T17:51:33.456Z,67.90
2023-03-05T17:54:04.314Z,68.07
2023-03-05T17:56:34.839Z,68.24
2023-03-05T17:59:05.280Z,68.22
2023-03-05T18:01:36.627Z,68.20
2023-03-05T18:04:07.690Z,68.26
2023-03-05T18:06:38.244Z,68.17
2023-03-05T18:09:08.706Z,68.19
2023-03-05T18:11:39.181Z,68.02
2023-03-05T18:14:09.793Z,67.96
2023-03-05T18:16:40.381Z,67.89
2023-03-05T18:19:10.954Z,67.89
2023-03-05T18:21:42.284Z,67.75
2023-03-05T18:24:13.044Z,67.79
2023-03-05T18:26:43.448Z,67.83
2023-03-05T18:29:13.846Z,67.67
2023-03-05T18:31:44.284Z,67.72
2023-03-05T18:34:14.755Z,67.49
2023-03-05T18:36:45.269Z,67.55
2023-03-05T18:39:16.628Z,67.66
2023-03-05T18:41:47.781Z,67.49
2023-03-05T18:44:20.453Z,67.57
2023-03-05T18:46:51.310Z,67.47
2023-03-05T18:49:21.781Z,67.56
2023-03-05T18:51:52.344Z,67.70
2023-03-05T18:54:23.012Z,67.71
2023-03-05T18:56:53.535Z,67.81
2023-03-05T18:59:23.966Z,67.92
2023-03-05T19:01:54.465Z,68.09
2023-03-05T19:04:25.003Z,68.29
2023-03-05T19:06:55.453Z,68.21
2023-03-05T19:09:42.117Z,68.25
2023-03-05T19:12:12.588Z,68.32
2023-03-05T19:14:42.997Z,68.39
2023-03-05T19:17:13.642Z,68.30
2023-03-05T19:19:44.105Z,68.47
2023-03-05T19:22:14.800Z,68.39
2023-03-05T19:24:45.286Z,68.39
2023-03-05T19:27:16.001Z,68.36
2023-03-05T19:29:46.677Z,68.62
2023-03-05T19:32:18.771Z,68.58
2023-03-05T19:34:49.685Z,68.61
2023-03-05T19:37:20.184Z,68.48
2023-03-05T19:39:50.942Z,68.67
2023-03-05T19:42:21.488Z,68.83
2023-03-05T19:44:51.977Z,68.62
2023-03-05T19:47:22.498Z,68.63
2023-03-05T19:49:53.003Z,68.51
2023-03-05T19:52:23.590Z,68.89
2023-03-05T19:54:54.079Z,68.87
2023-03-05T19:57:24.574Z,68.72
2023-03-05T19:59:55.631Z,69.07
2023-03-05T20:02:26.087Z,69.15
2023-03-05T20:04:58.473Z,69.05
2023-03-05T20:07:29.113Z,68.98
2023-03-05T20:10:00.116Z,69.16
2023-03-05T20:12:30.651Z,69.17
2023-03-05T20:15:01.253Z,69.06
2023-03-05T20:17:31.703Z,69.17
2023-03-05T20:20:02.373Z,69.40
2023-03-05T20:22:32.829Z,69.24
2023-03-05T20:25:03.257Z,69.22
2023-03-05T20:27:34.481Z,69.30
2023-03-05T20:30:05.710Z,69.27
2023-03-05T20:32:36.409Z,69.47
2023-03-05T20:35:08.400Z,69.47
2023-03-05T20:37:49.418Z,69.38
2023-03-05T20:40:20.902Z,69.61
2023-03-05T20:42:52.342Z,69.73
2023-03-05T20:45:22.993Z,69.87
2023-03-05T20:47:53.681Z,69.89
2023-03-05T20:50:24.458Z,69.78
2023-03-05T20:52:54.909Z,69.92
2023-03-05T20:55:28.548Z,69.98
2023-03-05T20:57:59.510Z,69.91
2023-03-05T21:00:30.319Z,70.30
2023-03-05T21:03:00.931Z,70.07
2023-03-05T21:05:32.244Z,70.06
2023-03-05T21:08:04.312Z,70.10
2023-03-05T21:15:16.261Z,69.99
2023-03-05T21:17:46.937Z,70.12
2023-03-05T21:20:20.336Z,69.99
2023-03-05T21:22:50.874Z,70.07
2023-03-05T21:25:23.113Z,70.13
2023-03-05T21:27:58.363Z,70.03
2023-03-05T21:30:34.309Z,70.13
2023-03-05T21:33:06.922Z,69.99
2023-03-05T21:35:38.604Z,70.23
2023-03-05T21:38:10.690Z,70.16
2023-03-05T21:40:45.515Z,70.15
2023-03-05T21:43:18.529Z,69.99
2023-03-05T21:45:51.061Z,70.27
2023-03-05T21:48:20.561Z,70.15
2023-03-05T21:50:52.490Z,70.12
2023-03-05T21:57:43.426Z,70.36
2023-03-05T22:00:18.135Z,70.22
2023-03-05T22:02:48.582Z,70.43
2023-03-05T22:05:19.416Z,70.48
2023-03-05T22:07:49.878Z,70.34
2023-03-05T22:10:22.061Z,70.40
2023-03-05T22:12:56.678Z,70.42
2023-03-05T22:15:27.662Z,70.55
2023-03-05T22:17:58.295Z,70.76
2023-03-05T22:20:28.841Z,70.81
2023-03-05T22:22:59.348Z,70.76
2023-03-05T22:25:30.227Z,70.64
2023-03-05T22:28:00.733Z,70.45
2023-03-05T22:30:32.181Z,70.66
2023-03-05T22:33:03.381Z,70.51
2023-03-05T22:35:34.078Z,70.56
2023-03-05T22:38:04.594Z,70.61
2023-03-05T22:40:36.971Z,70.52
2023-03-05T22:43:07.598Z,70.80
2023-03-05T22:45:38.312Z,70.83
2023-03-05T22:48:10.422Z,70.76
2023-03-05T22:50:42.420Z,70.78
2023-03-05T22:53:13.550Z,70.65
2023-03-05T22:55:44.454Z,70.84
2023-03-05T22:58:14.872Z,70.72
2023-03-05T23:00:45.303Z,70.72
2023-03-05T23:03:15.777Z,70.53
2023-03-05T23:05:46.315Z,70.46
2023-03-05T23:08:16.781Z,70.70
2023-03-05T23:10:47.217Z,70.39
2023-03-05T23:13:17.860Z,70.50
2023-03-05T23:15:48.302Z,70.60
2023-03-05T23:18:18.837Z,70.36
2023-03-05T23:20:49.305Z,70.31
2023-03-05T23:23:19.756Z,70.47
2023-03-05T23:25:52.969Z,70.47
2023-03-05T23:28:23.406Z,70.47
2023-03-05T23:30:53.869Z,70.34
2023-03-05T23:33:25.915Z,70.42
2023-03-05T23:35:59.291Z,70.43
2023-03-05T23:38:31.462Z,70.43
2023-03-05T23:41:03.615Z,70.44
2023-03-05T23:43:34.054Z,70.42
2023-03-05T23:46:04.751Z,70.48
2023-03-05T23:48:35.247Z,70.46
2023-03-05T23:51:11.160Z,70.52
2023-03-05T23:53:41.582Z,70.60
2023-03-05T23:56:13.336Z,70.57
2023-03-05T23:58:43.836Z,70.53
